Time;durP1;ratioP1;P1;durP2;ratioP2;P2;SDS_P1;SDS_P2;PMS_P1;PMS_P2;Temp;Humidity;BMP_temperature;BMP_pressure;BME280_temperature;BME280_humidity;BME280_pressure;Samples;Min_cycle;Max_cycle;Signal;HPM_P1;HPM_P2
2023/09/03 00:00:38;;;;;;;23.00;17.40;;;;;;;15.27;89.63;102203.38;5035540;28;20258;-73
2023/09/03 00:03:05;;;;;;;19.90;16.47;;;;;;;15.29;89.52;102198.69;5034990;28;20253;-73
2023/09/03 00:05:33;;;;;;;22.90;16.17;;;;;;;15.31;89.71;102190.47;5034951;28;20197;-73
2023/09/03 00:07:59;;;;;;;21.17;15.63;;;;;;;15.33;90.06;102193.84;5034821;28;20188;-73
2023/09/03 00:10:26;;;;;;;17.60;15.77;;;;;;;15.34;89.67;102193.72;5035338;28;20692;-73
2023/09/03 00:12:52;;;;;;;28.50;17.67;;;;;;;15.39;89.72;102196.81;5034795;28;20246;-73
2023/09/03 00:15:23;;;;;;;23.03;16.13;;;;;;;15.37;89.82;102198.78;5035034;28;20241;-73
2023/09/03 00:17:50;;;;;;;36.57;20.87;;;;;;;15.45;90.32;102206.13;5034952;28;20184;-73
2023/09/03 00:20:18;;;;;;;36.47;21.87;;;;;;;15.48;90.63;102195.94;5034930;28;20198;-73
2023/09/03 00:22:44;;;;;;;35.70;20.20;;;;;;;15.53;90.55;102204.44;5034878;28;20184;-73
2023/09/03 00:25:10;;;;;;;41.70;21.07;;;;;;;15.57;90.68;102186.16;5035134;28;20230;-73
2023/09/03 00:27:37;;;;;;;34.27;19.37;;;;;;;15.60;90.74;102183.16;5034768;28;20195;-73
2023/09/03 00:30:04;;;;;;;35.60;19.90;;;;;;;15.65;90.47;102185.41;5032672;28;20219;-73
2023/09/03 00:32:30;;;;;;;21.90;16.27;;;;;;;15.67;90.31;102183.38;5034834;28;20200;-73
2023/09/03 00:34:58;;;;;;;27.60;19.57;;;;;;;15.64;90.68;102187.25;5034581;28;20192;-74
2023/09/03 00:37:25;;;;;;;25.83;18.67;;;;;;;15.65;90.79;102190.78;5033044;28;20199;-74
2023/09/03 00:39:52;;;;;;;20.03;16.53;;;;;;;15.64;90.65;102194.47;5032944;28;20215;-73
2023/09/03 00:42:18;;;;;;;21.33;16.20;;;;;;;15.62;90.74;102201.84;5032970;28;20295;-73
2023/09/03 00:44:45;;;;;;;22.83;17.07;;;;;;;15.61;90.85;102205.56;5034156;28;20187;-73
2023/09/03 00:47:12;;;;;;;32.47;18.57;;;;;;;15.60;90.74;102207.41;5034103;28;20184;-73
2023/09/03 00:49:41;;;;;;;20.90;15.30;;;;;;;15.60;90.81;102218.19;5034117;28;20338;-73
2023/09/03 00:52:09;;;;;;;22.10;17.30;;;;;;;15.59;90.65;102221.03;5034219;28;20603;-73
2023/09/03 00:54:36;;;;;;;19.67;16.33;;;;;;;15.57;90.69;102225.72;5033966;28;20199;-73
2023/09/03 00:57:03;;;;;;;20.70;16.77;;;;;;;15.52;90.57;102227.03;5032685;28;20196;-73
2023/09/03 00:59:31;;;;;;;15.63;14.13;;;;;;;15.50;90.55;102225.44;5032588;28;20625;-73
2023/09/03 01:01:58;;;;;;;31.03;18.03;;;;;;;15.47;90.89;102233.81;5032607;28;20196;-73
2023/09/03 01:04:25;;;;;;;18.20;15.33;;;;;;;15.45;90.82;102236.63;5033824;28;20203;-73
2023/09/03 01:06:53;;;;;;;19.63;17.27;;;;;;;15.46;90.71;102232.09;5034037;28;20606;-73
2023/09/03 01:09:19;;;;;;;24.80;17.73;;;;;;;15.45;90.54;102228.56;5032430;28;20591;-73
2023/09/03 01:12:10;;;;;;;25.03;19.60;;;;;;;15.47;90.80;102231.97;5034246;28;20192;-73
2023/09/03 01:14:56;;;;;;;24.07;19.20;;;;;;;15.50;90.79;102237.09;5032416;28;20194;-73
2023/09/03 01:17:35;;;;;;;28.60;20.37;;;;;;;15.47;90.73;102241.91;5032413;28;20239;-73
2023/09/03 01:20:09;;;;;;;26.23;19.57;;;;;;;15.49;90.63;102240.75;5033837;28;20298;-73
2023/09/03 01:23:02;;;;;;;29.67;20.17;;;;;;;15.49;90.76;102234.50;5032306;28;20188;-73
2023/09/03 01:25:53;;;;;;;27.97;19.27;;;;;;;15.52;90.58;102227.03;5033774;28;20184;-73
2023/09/03 01:28:31;;;;;;;30.20;19.30;;;;;;;15.50;90.43;102226.31;5032121;28;20656;-73
2023/09/03 01:31:06;;;;;;;26.40;17.50;;;;;;;15.48;90.66;102222.03;5033449;28;20227;-73
2023/09/03 01:33:35;;;;;;;25.53;17.87;;;;;;;15.46;90.47;102224.00;5033358;28;20729;-73
2023/09/03 01:36:06;;;;;;;30.67;20.63;;;;;;;15.42;90.47;102218.06;5033371;28;20237;-73
2023/09/03 01:38:33;;;;;;;24.60;18.20;;;;;;;15.42;90.63;102228.00;5032004;28;20282;-73
2023/09/03 01:40:59;;;;;;;30.67;17.70;;;;;;;15.43;90.52;102235.94;5032249;28;20196;-73
2023/09/03 01:43:26;;;;;;;26.80;18.67;;;;;;;15.43;90.58;102235.09;5032468;28;20270;-73
2023/09/03 01:45:52;;;;;;;17.60;15.70;;;;;;;15.41;90.58;102234.38;5033240;28;20188;-73
2023/09/03 01:48:31;;;;;;;19.80;17.03;;;;;;;15.39;90.53;102234.53;5033346;28;20203;-72
2023/09/03 01:51:12;;;;;;;18.00;15.70;;;;;;;15.36;90.55;102232.13;5033184;28;20225;-73
2023/09/03 01:54:03;;;;;;;20.57;16.57;;;;;;;15.34;90.51;102235.97;5033391;28;20275;-73
2023/09/03 01:56:34;;;;;;;16.37;14.53;;;;;;;15.30;90.62;102234.56;5031887;28;20601;-73
2023/09/03 01:59:09;;;;;;;16.40;14.70;;;;;;;15.29;90.58;102232.84;5031807;28;20216;-73
2023/09/03 02:01:36;;;;;;;17.10;15.30;;;;;;;15.28;90.49;102231.16;5031895;28;20186;-73
2023/09/03 02:04:03;;;;;;;19.40;17.30;;;;;;;15.25;90.49;102235.00;5031794;28;20195;-73
2023/09/03 02:06:29;;;;;;;16.90;14.73;;;;;;;15.22;90.59;102227.22;5032272;28;20532;-73
2023/09/03 02:08:56;;;;;;;18.37;16.17;;;;;;;15.21;90.42;102224.66;5032940;28;20220;-72
2023/09/03 02:11:22;;;;;;;16.77;15.23;;;;;;;15.16;90.44;102213.44;5031733;28;20199;-73
2023/09/03 02:13:49;;;;;;;20.27;16.63;;;;;;;15.14;90.44;102220.84;5033125;28;20629;-73
2023/09/03 02:16:15;;;;;;;15.20;13.80;;;;;;;15.13;90.54;102224.53;5031886;28;20204;-73
2023/09/03 02:18:41;;;;;;;16.53;14.93;;;;;;;15.09;90.47;102222.13;5033064;28;20231;-73
2023/09/03 02:21:08;;;;;;;17.33;15.60;;;;;;;15.07;90.55;102223.25;5031603;28;20686;-73
2023/09/03 02:23:35;;;;;;;14.17;12.87;;;;;;;15.04;90.46;102235.19;5031624;28;20240;-73
2023/09/03 02:26:02;;;;;;;14.23;13.03;;;;;;;15.03;90.37;102235.31;5033109;28;20195;-73
2023/09/03 02:28:29;;;;;;;15.23;13.73;;;;;;;15.00;90.57;102235.59;5033025;28;20208;-73
2023/09/03 02:30:56;;;;;;;14.40;13.03;;;;;;;14.95;90.44;102240.56;5031811;28;20203;-73
2023/09/03 02:33:22;;;;;;;15.53;13.03;;;;;;;14.93;90.46;102238.03;5032988;28;20242;-73
2023/09/03 02:35:50;;;;;;;14.43;13.13;;;;;;;14.92;90.56;102240.88;5031528;28;20191;-74
2023/09/03 02:38:16;;;;;;;19.13;15.43;;;;;;;14.88;90.23;102247.53;5031695;28;20644;-73
2023/09/03 02:40:43;;;;;;;28.23;17.63;;;;;;;14.86;90.31;102261.13;5031482;28;20196;-73
2023/09/03 02:43:09;;;;;;;22.87;17.57;;;;;;;14.83;90.35;102264.09;5031431;28;20648;-73
2023/09/03 02:45:37;;;;;;;21.67;18.13;;;;;;;14.80;90.37;102277.00;5032931;28;20190;-74
2023/09/03 02:48:04;;;;;;;19.77;17.23;;;;;;;14.78;90.48;102269.06;5033095;28;20212;-73
2023/09/03 02:50:30;;;;;;;17.53;15.67;;;;;;;14.78;90.41;102277.13;5031374;28;20570;-73
2023/09/03 02:52:57;;;;;;;16.47;14.93;;;;;;;14.75;90.59;102268.50;5031270;28;20215;-73
2023/09/03 02:55:23;;;;;;;16.40;14.63;;;;;;;14.72;90.45;102253.50;5035017;28;20246;-74
2023/09/03 02:57:50;;;;;;;16.53;14.90;;;;;;;14.64;90.74;102253.31;5034891;28;20192;-73
2023/09/03 03:00:18;;;;;;;16.77;14.93;;;;;;;14.58;90.39;102251.19;5034913;28;20196;-73
2023/09/03 03:02:44;;;;;;;14.97;13.37;;;;;;;14.55;90.48;102248.81;5034861;28;20203;-73
2023/09/03 03:05:11;;;;;;;15.67;14.23;;;;;;;14.53;90.63;102250.75;5036101;28;20188;-73
2023/09/03 03:07:40;;;;;;;19.83;16.20;;;;;;;14.52;90.24;102243.69;5036517;28;20180;-73
2023/09/03 03:10:07;;;;;;;16.83;14.93;;;;;;;14.49;90.25;102236.75;5035908;28;20219;-73
2023/09/03 03:12:34;;;;;;;19.73;16.17;;;;;;;14.46;90.13;102230.81;5034510;28;20223;-73
2023/09/03 03:15:01;;;;;;;15.40;14.10;;;;;;;14.45;90.23;102223.72;5034696;28;20180;-73
2023/09/03 03:17:27;;;;;;;15.73;14.00;;;;;;;14.39;90.15;102219.72;5035856;28;20188;-73
2023/09/03 03:19:54;;;;;;;13.90;12.57;;;;;;;14.38;90.38;102209.97;5036010;28;20206;-73
2023/09/03 03:22:21;;;;;;;13.63;12.23;;;;;;;14.36;90.39;102206.56;5034517;28;20196;-73
2023/09/03 03:24:48;;;;;;;12.07;10.97;;;;;;;14.35;90.47;102210.25;5034489;28;20282;-73
2023/09/03 03:27:14;;;;;;;15.67;14.37;;;;;;;14.32;90.26;102202.41;5035721;28;20191;-73
2023/09/03 03:29:40;;;;;;;15.03;13.47;;;;;;;14.24;90.38;102201.41;5035661;28;20211;-73
2023/09/03 03:32:07;;;;;;;12.50;11.70;;;;;;;14.15;90.29;102209.34;5034205;28;20290;-73
2023/09/03 03:34:41;;;;;;;15.13;13.93;;;;;;;14.07;90.37;102194.88;5034487;28;20265;-73
2023/09/03 03:37:09;;;;;;;15.67;13.83;;;;;;;14.03;90.36;102204.22;5034258;28;20246;-73
2023/09/03 03:39:36;;;;;;;17.47;15.47;;;;;;;14.03;90.22;102228.41;5034125;28;20695;-73
2023/09/03 03:42:04;;;;;;;13.53;12.43;;;;;;;13.98;90.24;102236.88;5034166;28;20562;-73
2023/09/03 03:44:31;;;;;;;16.33;14.70;;;;;;;13.98;90.10;102242.28;5034086;28;20242;-73
2023/09/03 03:46:57;;;;;;;19.90;17.00;;;;;;;13.97;90.32;102247.78;5034062;28;20298;-73
2023/09/03 03:49:23;;;;;;;19.57;17.37;;;;;;;13.98;90.26;102249.47;5035166;28;20208;-73
2023/09/03 03:51:51;;;;;;;24.03;17.77;;;;;;;13.96;90.20;102251.47;5033940;28;20195;-73
2023/09/03 03:54:18;;;;;;;16.83;15.13;;;;;;;13.95;90.32;102257.84;5035647;28;20207;-73
2023/09/03 03:56:44;;;;;;;16.87;15.13;;;;;;;13.94;90.23;102256.13;5035646;28;20679;-73
2023/09/03 03:59:11;;;;;;;16.53;14.83;;;;;;;13.93;90.33;102257.09;5033982;28;20212;-73
2023/09/03 04:01:37;;;;;;;18.53;16.63;;;;;;;13.95;90.46;102252.44;5035023;28;20187;-73
2023/09/03 04:04:05;;;;;;;22.13;18.23;;;;;;;13.93;90.66;102246.34;5034989;28;20222;-73
2023/09/03 04:06:31;;;;;;;18.67;15.40;;;;;;;13.95;90.35;102252.44;5034083;28;20198;-73
2023/09/03 04:08:58;;;;;;;18.17;15.33;;;;;;;13.95;90.18;102257.84;5033548;28;20227;-73
2023/09/03 04:11:24;;;;;;;17.93;15.37;;;;;;;13.95;90.48;102261.38;5034388;28;20596;-73
2023/09/03 04:13:51;;;;;;;14.27;13.07;;;;;;;13.94;90.62;102274.94;5033483;28;20777;-74
2023/09/03 04:16:20;;;;;;;16.60;14.43;;;;;;;13.93;90.58;102290.22;5034779;28;20531;-74
2023/09/03 04:18:51;;;;;;;17.67;14.10;;;;;;;13.92;90.55;102287.69;5033413;28;20211;-73
2023/09/03 04:21:18;;;;;;;15.50;14.17;;;;;;;13.92;90.63;102298.44;5033450;28;20292;-73
2023/09/03 04:23:44;;;;;;;16.00;14.23;;;;;;;13.92;90.88;102303.81;5034624;28;20246;-73
2023/09/03 04:26:11;;;;;;;17.53;15.73;;;;;;;13.92;90.71;102304.63;5033277;28;20200;-73
2023/09/03 04:28:42;;;;;;;15.87;14.57;;;;;;;13.91;90.74;102310.19;5033222;28;20225;-73
2023/09/03 04:31:08;;;;;;;31.93;19.03;;;;;;;13.87;90.48;102312.28;5033169;28;20594;-73
2023/09/03 04:33:38;;;;;;;16.60;14.67;;;;;;;13.86;90.78;102315.09;5033093;28;20702;-73
2023/09/03 04:36:07;;;;;;;12.73;11.83;;;;;;;13.84;90.60;102322.44;5033125;28;20612;-73
2023/09/03 04:38:35;;;;;;;13.93;12.83;;;;;;;13.83;90.67;102321.59;5033233;28;20211;-73
2023/09/03 04:41:05;;;;;;;16.73;15.13;;;;;;;13.81;90.86;102322.69;5033519;28;20283;-73
2023/09/03 04:43:37;;;;;;;14.30;13.00;;;;;;;13.77;90.63;102308.69;5033833;28;20182;-73
2023/09/03 04:46:04;;;;;;;13.23;11.90;;;;;;;13.72;91.34;102310.91;5032901;28;20203;-73
2023/09/03 04:48:31;;;;;;;12.20;11.30;;;;;;;13.70;90.64;102308.38;5032810;28;20290;-73
2023/09/03 04:51:03;;;;;;;14.93;13.73;;;;;;;13.69;90.85;102305.81;5032831;28;20196;-73
2023/09/03 04:53:33;;;;;;;14.03;12.73;;;;;;;13.65;90.84;102302.53;5033598;28;20235;-73
2023/09/03 04:56:01;;;;;;;16.10;14.43;;;;;;;13.63;90.74;102299.13;5033589;28;20211;-73
2023/09/03 04:58:29;;;;;;;13.87;12.67;;;;;;;13.59;90.88;102297.69;5032644;28;20637;-73
2023/09/03 05:00:56;;;;;;;14.33;13.17;;;;;;;13.56;90.97;102294.44;5032645;28;20199;-73
2023/09/03 05:03:23;;;;;;;19.60;17.60;;;;;;;13.51;90.60;102302.03;5032604;28;20192;-73
2023/09/03 05:05:50;;;;;;;22.33;16.73;;;;;;;13.49;90.68;102312.94;5032564;28;20287;-73
2023/09/03 05:08:16;;;;;;;17.43;15.63;;;;;;;13.48;90.60;102316.59;5032467;28;20223;-73
2023/09/03 05:10:43;;;;;;;18.70;15.87;;;;;;;13.50;90.64;102322.66;5033741;28;20267;-73
2023/09/03 05:13:11;;;;;;;15.90;14.27;;;;;;;13.47;90.34;102325.63;5032333;28;20294;-73
2023/09/03 05:15:40;;;;;;;13.73;12.57;;;;;;;13.42;90.62;102321.63;5033934;28;20713;-73
2023/09/03 05:18:07;;;;;;;14.03;12.73;;;;;;;13.42;90.51;102327.00;5032243;28;20258;-73
2023/09/03 05:20:37;;;;;;;23.43;15.17;;;;;;;13.43;91.26;102326.88;5032378;28;20196;-73
2023/09/03 05:23:05;;;;;;;19.40;15.67;;;;;;;13.43;90.76;102336.75;5032323;28;20294;-73
2023/09/03 05:25:32;;;;;;;17.70;15.93;;;;;;;13.44;90.81;102344.69;5032310;28;20192;-73
2023/09/03 05:27:59;;;;;;;18.67;14.43;;;;;;;13.45;91.10;102343.69;5032997;28;20192;-73
2023/09/03 05:30:26;;;;;;;16.03;14.43;;;;;;;13.46;90.88;102344.56;5033777;28;20191;-73
2023/09/03 05:32:52;;;;;;;18.80;16.83;;;;;;;13.47;90.97;102335.50;5033446;28;20674;-73
2023/09/03 05:35:20;;;;;;;16.67;14.13;;;;;;;13.48;91.58;102340.78;5032578;28;20626;-73
2023/09/03 05:37:47;;;;;;;18.87;15.70;;;;;;;13.52;91.50;102347.59;5033789;28;20195;-73
2023/09/03 05:40:13;;;;;;;15.97;14.40;;;;;;;13.52;90.87;102355.63;5032064;28;20187;-73
2023/09/03 05:42:40;;;;;;;17.10;15.27;;;;;;;13.56;91.26;102354.41;5032086;28;20567;-74
2023/09/03 05:45:07;;;;;;;18.80;17.10;;;;;;;13.57;91.04;102358.78;5032526;28;20192;-74
2023/09/03 05:47:34;;;;;;;19.37;16.53;;;;;;;13.57;91.26;102355.25;5033256;28;20192;-74
2023/09/03 05:50:03;;;;;;;16.80;15.20;;;;;;;13.61;91.34;102351.31;5031855;28;20218;-74
2023/09/03 05:52:30;;;;;;;18.00;15.87;;;;;;;13.63;91.03;102352.88;5033726;28;20184;-74
2023/09/03 05:54:57;;;;;;;22.60;17.43;;;;;;;13.71;91.86;102355.75;5031840;28;20306;-74
2023/09/03 05:57:23;;;;;;;36.77;19.83;;;;;;;13.80;91.70;102367.53;5031872;28;20208;-74
2023/09/03 05:59:50;;;;;;;29.03;21.13;;;;;;;13.89;91.76;102373.97;5031771;28;20594;-73
2023/09/03 06:02:18;;;;;;;23.07;19.03;;;;;;;13.97;91.92;102383.06;5031826;28;20191;-73
2023/09/03 06:04:46;;;;;;;27.17;21.57;;;;;;;14.04;91.88;102378.88;5031813;28;20197;-73
2023/09/03 06:07:13;;;;;;;26.27;20.13;;;;;;;14.10;91.75;102378.34;5032037;28;20195;-73
2023/09/03 06:09:39;;;;;;;27.17;20.43;;;;;;;14.15;91.83;102391.38;5032974;28;20207;-73
2023/09/03 06:12:06;;;;;;;27.87;21.90;;;;;;;14.19;92.02;102393.66;5033287;28;20188;-73
2023/09/03 06:14:33;;;;;;;29.00;20.43;;;;;;;14.21;92.13;102390.84;5033138;28;20215;-73
2023/09/03 06:16:59;;;;;;;28.07;21.13;;;;;;;14.25;92.18;102400.34;5033213;28;20203;-73
2023/09/03 06:19:26;;;;;;;25.30;20.53;;;;;;;14.29;92.58;102401.78;5032873;28;20211;-73
2023/09/03 06:21:52;;;;;;;27.90;21.33;;;;;;;14.34;92.20;102401.38;5032936;28;20181;-73
2023/09/03 06:24:19;;;;;;;24.27;20.80;;;;;;;14.38;92.50;102401.03;5033437;28;20188;-73
2023/09/03 06:26:45;;;;;;;32.93;24.07;;;;;;;14.40;92.25;102417.00;5033166;28;20188;-73
2023/09/03 06:29:12;;;;;;;34.70;23.00;;;;;;;14.40;91.89;102427.78;5034908;28;20207;-73
2023/09/03 06:31:38;;;;;;;37.57;24.60;;;;;;;14.43;92.54;102432.88;5036847;28;20559;-73
2023/09/03 06:34:05;;;;;;;29.90;23.27;;;;;;;14.44;92.62;102439.97;5036588;28;20207;-73
2023/09/03 06:36:31;;;;;;;26.53;19.97;;;;;;;14.50;92.69;102444.81;5036893;28;20222;-73
2023/09/03 06:38:58;;;;;;;31.83;20.27;;;;;;;14.56;92.61;102447.81;5036570;28;20266;-73
2023/09/03 06:41:24;;;;;;;34.70;23.70;;;;;;;14.58;92.61;102451.25;5037050;28;20195;-73
2023/09/03 06:43:51;;;;;;;35.13;24.37;;;;;;;14.64;92.82;102445.28;5036746;28;20197;-73
2023/09/03 06:46:17;;;;;;;32.67;23.13;;;;;;;14.68;92.35;102456.66;5036731;28;20656;-73
2023/09/03 06:48:44;;;;;;;36.97;23.60;;;;;;;14.72;92.74;102462.63;5036638;28;20212;-74
2023/09/03 06:51:10;;;;;;;48.10;25.90;;;;;;;14.76;92.55;102458.66;5036877;28;20199;-74
2023/09/03 06:53:36;;;;;;;38.13;26.33;;;;;;;14.83;93.02;102465.19;5036503;28;20551;-74
2023/09/03 06:56:03;;;;;;;50.17;27.23;;;;;;;14.93;92.60;102475.03;5036251;28;20237;-74
2023/09/03 06:58:30;;;;;;;38.77;26.50;;;;;;;14.96;92.84;102480.13;5036395;28;20216;-74
2023/09/03 07:00:56;;;;;;;37.37;25.23;;;;;;;14.99;92.68;102474.47;5036158;28;20187;-74
2023/09/03 07:03:23;;;;;;;36.50;25.60;;;;;;;15.06;92.66;102483.69;5036119;28;20188;-74
2023/09/03 07:05:49;;;;;;;40.27;24.43;;;;;;;15.13;92.42;102486.69;5036074;28;20184;-74
2023/09/03 07:08:15;;;;;;;38.13;23.97;;;;;;;15.17;93.25;102487.25;5035988;28;20204;-73
2023/09/03 07:10:42;;;;;;;50.07;29.00;;;;;;;15.18;92.40;102487.13;5036573;28;20192;-73
2023/09/03 07:13:09;;;;;;;51.97;28.83;;;;;;;15.12;92.29;102490.38;5036082;28;20192;-73
2023/09/03 07:15:36;;;;;;;50.63;30.37;;;;;;;15.11;92.33;102493.22;5035818;28;20621;-73
2023/09/03 07:18:03;;;;;;;46.40;27.50;;;;;;;15.13;92.54;102497.47;5035769;28;20202;-73
2023/09/03 07:20:30;;;;;;;41.23;27.03;;;;;;;15.17;92.39;102498.91;5036376;28;20840;-73
2023/09/03 07:22:56;;;;;;;42.13;28.57;;;;;;;15.23;92.69;102502.88;5036018;28;20257;-73
2023/09/03 07:25:23;;;;;;;44.23;27.73;;;;;;;15.24;92.21;102509.97;5035992;28;20534;-73
2023/09/03 07:27:49;;;;;;;39.23;26.40;;;;;;;15.26;91.93;102508.84;5035889;28;20725;-72
2023/09/03 07:30:16;;;;;;;50.20;29.90;;;;;;;15.25;91.71;102511.66;5036226;28;20188;-73
2023/09/03 07:32:42;;;;;;;44.63;27.73;;;;;;;15.27;91.89;102513.25;5035648;28;20605;-74
2023/09/03 07:35:09;;;;;;;46.53;27.20;;;;;;;15.34;91.88;102514.41;5035760;28;20574;-74
2023/09/03 07:37:36;;;;;;;42.97;26.03;;;;;;;15.40;91.87;102505.72;5035521;28;20196;-74
2023/09/03 07:40:03;;;;;;;44.03;25.17;;;;;;;15.48;91.88;102500.53;5034440;28;20571;-73
2023/09/03 07:42:30;;;;;;;52.40;28.90;;;;;;;15.56;92.05;102499.84;5035699;28;20198;-73
2023/09/03 07:44:56;;;;;;;37.10;23.53;;;;;;;15.67;92.09;102497.00;5035366;28;20181;-73
2023/09/03 07:47:23;;;;;;;45.83;26.70;;;;;;;15.81;91.74;102509.22;5035569;28;20196;-74
2023/09/03 07:49:49;;;;;;;42.93;27.23;;;;;;;15.84;92.10;102517.88;5036015;28;20203;-73
2023/09/03 07:52:17;;;;;;;47.10;28.57;;;;;;;15.89;91.47;102518.31;5035750;28;20188;-73
2023/09/03 07:54:43;;;;;;;50.13;28.70;;;;;;;15.94;91.05;102521.44;5035148;28;20250;-73
2023/09/03 07:57:10;;;;;;;50.53;31.07;;;;;;;15.96;91.49;102521.25;5035409;28;20192;-73
2023/09/03 07:59:38;;;;;;;54.43;33.57;;;;;;;16.04;91.55;102531.38;5035290;28;20210;-74
2023/09/03 08:02:05;;;;;;;58.57;32.63;;;;;;;16.10;91.18;102533.47;5035607;28;20196;-73
2023/09/03 08:04:31;;;;;;;58.63;32.90;;;;;;;16.14;91.17;102533.03;5035002;28;20668;-73
2023/09/03 08:06:57;;;;;;;57.03;32.60;;;;;;;16.15;91.14;102521.25;5035508;28;20246;-73
2023/09/03 08:09:25;;;;;;;54.63;32.20;;;;;;;16.20;90.81;102527.09;5035386;28;20210;-73
2023/09/03 08:11:52;;;;;;;43.97;28.90;;;;;;;16.26;90.80;102528.34;5035143;28;20655;-73
2023/09/03 08:14:18;;;;;;;60.57;35.73;;;;;;;16.30;90.80;102536.00;5034686;28;20215;-73
2023/09/03 08:16:45;;;;;;;59.50;34.03;;;;;;;16.34;90.63;102534.72;5035338;28;20188;-74
2023/09/03 08:19:12;;;;;;;54.73;32.57;;;;;;;16.43;90.88;102533.00;5034651;28;20765;-73
2023/09/03 08:21:41;;;;;;;61.00;34.67;;;;;;;16.50;90.09;102534.13;5034687;28;20719;-73
2023/09/03 08:24:09;;;;;;;62.77;34.23;;;;;;;16.55;89.99;102529.13;5034612;28;20192;-73
2023/09/03 08:26:36;;;;;;;60.97;35.63;;;;;;;16.60;89.36;102526.88;5034836;28;20191;-73
2023/09/03 08:29:02;;;;;;;56.37;31.90;;;;;;;16.69;89.50;102517.88;5034455;28;20270;-73
2023/09/03 08:31:29;;;;;;;44.57;28.53;;;;;;;16.78;89.59;102514.28;5034486;28;20195;-73
2023/09/03 08:33:56;;;;;;;36.07;26.80;;;;;;;16.87;89.47;102509.84;5034647;28;20195;-73
2023/09/03 08:36:22;;;;;;;42.83;27.97;;;;;;;16.94;89.19;102515.50;5034613;28;20184;-73
2023/09/03 08:38:48;;;;;;;51.03;28.13;;;;;;;17.01;89.09;102506.66;5034753;28;20219;-73
2023/09/03 08:41:17;;;;;;;58.27;32.20;;;;;;;17.11;88.33;102506.59;5034827;28;20334;-73
2023/09/03 08:43:47;;;;;;;51.57;30.97;;;;;;;17.20;88.12;102506.53;5034153;28;20237;-72
2023/09/03 08:46:16;;;;;;;59.90;31.87;;;;;;;17.27;87.47;102504.91;5034175;28;20599;-72
2023/09/03 08:48:43;;;;;;;44.33;27.03;;;;;;;17.38;87.49;102503.03;5034102;28;20218;-72
2023/09/03 08:51:11;;;;;;;59.13;33.13;;;;;;;17.52;86.62;102502.50;5033984;28;20250;-72
2023/09/03 08:53:38;;;;;;;41.30;27.03;;;;;;;17.54;87.05;102501.34;5034362;28;20172;-72
2023/09/03 08:56:05;;;;;;;59.23;34.73;;;;;;;17.67;86.69;102514.50;5033986;28;20233;-73
2023/09/03 08:58:33;;;;;;;59.63;33.70;;;;;;;17.74;86.68;102511.03;5034201;28;20211;-72
2023/09/03 09:00:59;;;;;;;61.97;32.03;;;;;;;17.81;86.47;102516.69;5033989;28;20199;-72
2023/09/03 09:03:29;;;;;;;57.83;31.97;;;;;;;17.84;85.59;102513.66;5034178;28;20595;-72
2023/09/03 09:05:57;;;;;;;49.87;31.93;;;;;;;17.93;85.23;102512.72;5034108;28;20187;-72
2023/09/03 09:08:23;;;;;;;54.10;30.83;;;;;;;17.95;85.36;102520.69;5033736;28;20211;-72
2023/09/03 09:10:53;;;;;;;49.13;30.63;;;;;;;18.01;84.09;102517.34;5033829;28;20192;-72
2023/09/03 09:13:22;;;;;;;54.87;33.87;;;;;;;18.01;83.55;102523.63;5033901;28;20215;-72
2023/09/03 09:15:49;;;;;;;54.53;32.67;;;;;;;17.96;82.58;102531.34;5033600;28;20687;-72
2023/09/03 09:18:15;;;;;;;50.83;31.07;;;;;;;17.96;83.52;102533.19;5033620;28;20581;-72
2023/09/03 09:20:43;;;;;;;47.63;29.83;;;;;;;18.00;83.78;102531.88;5034167;28;20188;-72
2023/09/03 09:23:09;;;;;;;46.63;28.70;;;;;;;18.09;83.90;102534.50;5033589;28;20184;-72
2023/09/03 09:25:36;;;;;;;45.93;28.23;;;;;;;18.23;84.03;102535.81;5033809;28;20184;-72
2023/09/03 09:28:11;;;;;;;59.00;31.10;;;;;;;18.21;83.02;102548.63;5033428;28;20188;-72
2023/09/03 09:30:51;;;;;;;41.67;26.97;;;;;;;18.25;83.38;102548.16;5033451;28;20226;-72
2023/09/03 09:33:18;;;;;;;41.40;27.87;;;;;;;18.36;83.38;102540.81;5034008;28;20210;-72
2023/09/03 09:35:44;;;;;;;46.03;29.77;;;;;;;18.51;83.86;102533.78;5033824;28;20212;-72
2023/09/03 09:38:11;;;;;;;34.80;25.57;;;;;;;18.59;82.64;102534.72;5033517;28;20765;-72
2023/09/03 09:40:37;;;;;;;40.37;27.03;;;;;;;18.68;82.73;102530.22;5033384;28;20242;-72
2023/09/03 09:43:07;;;;;;;47.90;29.03;;;;;;;18.77;81.97;102536.53;5033852;28;20188;-72
2023/09/03 09:45:44;;;;;;;48.30;29.77;;;;;;;18.73;81.94;102527.88;5033220;28;20718;-72
2023/09/03 09:48:12;;;;;;;43.77;27.57;;;;;;;18.82;82.23;102529.63;5033645;28;20249;-72
2023/09/03 09:50:40;;;;;;;40.87;27.33;;;;;;;18.90;82.18;102529.66;5033650;28;20188;-73
2023/09/03 09:53:26;;;;;;;66.33;29.60;;;;;;;19.03;81.43;102529.19;5033195;28;20242;-71
2023/09/03 09:56:00;;;;;;;34.17;26.10;;;;;;;19.08;81.54;102518.72;5033116;28;20659;-71
2023/09/03 09:58:38;;;;;;;31.73;24.57;;;;;;;19.18;80.98;102527.56;5033115;28;20207;-70
2023/09/03 10:01:05;;;;;;;33.90;27.27;;;;;;;19.27;80.84;102525.72;5033411;28;20615;-70
2023/09/03 10:03:48;;;;;;;28.80;23.60;;;;;;;19.36;80.63;102524.72;5034414;28;20187;-70
2023/09/03 10:06:20;;;;;;;30.03;24.53;;;;;;;19.48;78.94;102531.56;5037531;28;20248;-69
2023/09/03 10:08:48;;;;;;;28.50;23.13;;;;;;;19.53;78.43;102527.34;5037119;28;20219;-70
2023/09/03 10:11:18;;;;;;;34.43;24.83;;;;;;;19.59;76.87;102518.56;5037371;28;20625;-70
2023/09/03 10:13:47;;;;;;;23.77;20.90;;;;;;;19.64;76.84;102518.06;5037053;28;20246;-70
2023/09/03 10:16:17;;;;;;;27.93;20.60;;;;;;;19.68;76.93;102522.13;5036921;28;20257;-70
2023/09/03 10:18:48;;;;;;;25.83;21.17;;;;;;;19.67;76.96;102525.88;5036913;28;20203;-69
2023/09/03 10:21:20;;;;;;;23.47;20.97;;;;;;;19.67;76.69;102531.28;5036931;28;20188;-70
2023/09/03 10:23:55;;;;;;;20.33;18.30;;;;;;;19.69;75.38;102531.13;5037202;28;20226;-70
2023/09/03 10:26:27;;;;;;;17.47;15.93;;;;;;;19.62;72.75;102530.94;5037373;28;20238;-70
2023/09/03 10:29:01;;;;;;;21.03;18.50;;;;;;;19.60;71.50;102527.56;5037019;28;20216;-70
2023/09/03 10:31:30;;;;;;;21.43;15.00;;;;;;;19.55;72.23;102527.22;5037101;28;20176;-70
2023/09/03 10:33:57;;;;;;;20.33;18.30;;;;;;;19.52;72.66;102531.06;5036869;28;20196;-71
2023/09/03 10:36:23;;;;;;;18.20;16.70;;;;;;;19.51;73.03;102531.28;5036844;28;20200;-70
2023/09/03 10:38:50;;;;;;;14.90;13.80;;;;;;;19.54;72.21;102525.50;5036572;28;20266;-69
2023/09/03 10:41:25;;;;;;;10.60;9.73;;;;;;;19.55;71.71;102529.91;5037103;28;20199;-71
2023/09/03 10:43:55;;;;;;;8.60;8.00;;;;;;;19.56;70.23;102542.47;5036806;28;20172;-70
2023/09/03 10:46:22;;;;;;;7.57;7.20;;;;;;;19.58;69.96;102535.00;5036491;28;20586;-70
2023/09/03 10:48:51;;;;;;;11.20;10.30;;;;;;;19.64;69.96;102536.22;5036912;28;20579;-70
2023/09/03 10:51:38;;;;;;;10.70;9.97;;;;;;;19.57;69.38;102525.16;5036386;28;20659;-70
2023/09/03 10:54:18;;;;;;;8.83;8.07;;;;;;;19.58;68.03;102529.56;5036641;28;20263;-70
2023/09/03 10:57:03;;;;;;;9.17;8.80;;;;;;;19.56;68.04;102524.31;5036816;28;20206;-70
2023/09/03 10:59:58;;;;;;;10.37;9.80;;;;;;;19.63;67.45;102521.78;5036326;28;20219;-70
2023/09/03 11:02:26;;;;;;;10.50;9.60;;;;;;;19.74;67.03;102516.03;5036448;28;20529;-70
2023/09/03 11:05:11;;;;;;;13.37;12.13;;;;;;;19.80;67.23;102514.50;5036453;28;20188;-70
2023/09/03 11:07:38;;;;;;;12.37;11.20;;;;;;;19.85;68.00;102513.00;5036051;28;20199;-70
2023/09/03 11:10:20;;;;;;;10.53;9.93;;;;;;;19.83;68.28;102516.88;5035967;28;20623;-70
2023/09/03 11:12:49;;;;;;;8.20;7.90;;;;;;;19.88;68.87;102518.09;5035878;28;20199;-70
2023/09/03 11:15:16;;;;;;;11.07;9.87;;;;;;;19.93;67.93;102518.44;5035847;28;20265;-70